Terminal Aerodrome Forecast
Issued by NWS

Home | Current Version | Previous Version | Text Only | Print | Product List | Glossary On
Versions: 1 2 3 4 5 6 7 8 9 10 11 12 13 14 15 16 17 18 19 20 21 22 23
000
FTUS45 KTFX 162000 AAB
TAFCTB
TAF AMD
KCTB 162033Z 1621/1718 05008KT P6SM OVC007
     FM170200 14008KT 6SM -SN OVC003
     FM170700 19006KT P6SM SCT005 OVC025
     FM171000 24008KT P6SM OVC060=

USA.gov is the U.S. government's official web portal to all federal, state and local government web resources and services.